Time;durP1;ratioP1;P1;durP2;ratioP2;P2;SDS_P1;SDS_P2;PMS_P1;PMS_P2;Temp;Humidity;BMP_temperature;BMP_pressure;BME280_temperature;BME280_humidity;BME280_pressure;Samples;Min_cycle;Max_cycle;Signal;HPM_P1;HPM_P2
2023/02/14 00:01:36;;;;;;;51.35;46.83;;;-0.30;99.90;;;;;;4167212;28;20061;-88
2023/02/14 00:03:59;;;;;;;51.05;46.60;;;-0.50;99.90;;;;;;4158359;28;20041;-88
2023/02/14 00:06:19;;;;;;;56.22;50.72;;;-0.60;99.90;;;;;;4163998;28;20079;-88
2023/02/14 00:08:43;;;;;;;53.97;48.85;;;-0.50;99.90;;;;;;4165607;28;20053;-88
2023/02/14 00:11:04;;;;;;;51.67;47.42;;;-0.40;99.90;;;;;;4170858;28;20049;-88
2023/02/14 00:13:23;;;;;;;54.25;49.25;;;-0.30;99.90;;;;;;4164840;28;20076;-88
2023/02/14 00:15:43;;;;;;;51.13;46.40;;;-0.30;99.90;;;;;;4166061;28;20410;-88
2023/02/14 00:18:05;;;;;;;87.43;75.32;;;-0.30;99.90;;;;;;4164240;28;20092;-87
2023/02/14 00:20:26;;;;;;;78.35;67.35;;;-0.50;99.90;;;;;;4161736;28;20057;-88
2023/02/14 00:22:45;;;;;;;70.45;63.25;;;-0.60;99.90;;;;;;4160915;28;20244;-88
2023/02/14 00:25:06;;;;;;;71.10;63.55;;;-0.50;99.90;;;;;;4164419;28;20115;-88
2023/02/14 00:27:25;;;;;;;60.25;54.20;;;-0.50;99.90;;;;;;4166418;28;20076;-87
2023/02/14 00:29:45;;;;;;;57.95;52.55;;;-0.70;99.90;;;;;;4165237;28;20052;-88
2023/02/14 00:32:04;;;;;;;60.90;55.22;;;-0.90;99.90;;;;;;4176301;28;20486;-88
2023/02/14 00:34:25;;;;;;;62.20;56.55;;;-1.00;99.90;;;;;;4173705;28;20039;-87
2023/02/14 00:36:45;;;;;;;61.97;56.65;;;-1.10;99.90;;;;;;4179239;28;20083;-87
2023/02/14 00:39:08;;;;;;;62.70;56.97;;;-1.20;99.90;;;;;;4174056;28;20113;-87
2023/02/14 00:41:27;;;;;;;63.22;57.65;;;-1.10;99.90;;;;;;4175337;28;20118;-88
2023/02/14 00:43:50;;;;;;;69.95;63.20;;;-1.20;99.90;;;;;;4160360;28;20366;-87
2023/02/14 00:46:09;;;;;;;64.05;58.47;;;-1.30;99.90;;;;;;4164402;28;20387;-87
2023/02/14 00:48:29;;;;;;;64.93;59.13;;;-1.40;99.90;;;;;;4175509;28;20071;-88
2023/02/14 00:50:49;;;;;;;63.80;58.22;;;-1.50;99.90;;;;;;4163955;28;20080;-87
2023/02/14 00:53:09;;;;;;;58.88;54.45;;;-1.40;99.90;;;;;;4177149;28;20398;-88
2023/02/14 00:55:29;;;;;;;56.55;52.35;;;-1.40;99.90;;;;;;4169606;28;20084;-87
2023/02/14 00:57:49;;;;;;;63.35;58.45;;;-1.40;99.90;;;;;;4179187;28;20147;-88
2023/02/14 01:00:09;;;;;;;58.20;53.42;;;-1.40;99.90;;;;;;4179260;28;20152;-88
2023/02/14 01:02:29;;;;;;;64.05;58.63;;;-1.60;99.90;;;;;;4177989;28;20044;-88
2023/02/14 01:04:49;;;;;;;60.20;55.47;;;-1.60;99.90;;;;;;4162151;28;20057;-87
2023/02/14 01:07:09;;;;;;;64.28;59.17;;;-1.70;99.90;;;;;;4162891;28;20045;-88
2023/02/14 01:09:29;;;;;;;59.03;54.80;;;-1.80;99.90;;;;;;4166553;28;20044;-88
2023/02/14 01:11:50;;;;;;;54.88;50.47;;;-1.70;99.90;;;;;;4163161;28;20072;-87
2023/02/14 01:14:11;;;;;;;56.65;52.95;;;-1.50;99.90;;;;;;4161630;28;20084;-88
2023/02/14 01:16:31;;;;;;;55.45;51.85;;;-1.60;99.90;;;;;;4162570;28;20081;-88
2023/02/14 01:18:51;;;;;;;53.70;49.78;;;-1.70;99.90;;;;;;4160375;28;20237;-87
2023/02/14 01:21:21;;;;;;;57.97;53.75;;;-1.90;99.90;;;;;;4163447;28;20072;-88
2023/02/14 01:23:41;;;;;;;57.20;52.83;;;-2.00;99.90;;;;;;4165223;28;20099;-88
2023/02/14 01:26:08;;;;;;;54.10;49.88;;;-2.10;99.90;;;;;;4171906;28;20091;-87
2023/02/14 01:28:27;;;;;;;51.15;47.75;;;-2.10;99.90;;;;;;4167439;28;20249;-88
2023/02/14 01:30:47;;;;;;;52.50;48.95;;;-1.90;99.90;;;;;;4176620;28;20304;-88
2023/02/14 01:33:07;;;;;;;48.83;45.47;;;-1.90;99.90;;;;;;4169531;28;20048;-88
2023/02/14 01:35:27;;;;;;;54.08;49.97;;;-2.00;99.90;;;;;;4176599;28;20064;-88
2023/02/14 01:37:47;;;;;;;51.42;48.05;;;-1.80;99.90;;;;;;4168929;28;20076;-87
2023/02/14 01:40:11;;;;;;;44.67;42.17;;;-1.60;99.90;;;;;;4166140;28;20049;-88
2023/02/14 01:42:33;;;;;;;42.67;40.20;;;-1.70;99.90;;;;;;4169007;28;20064;-88
2023/02/14 01:45:19;;;;;;;41.97;39.40;;;-1.70;99.90;;;;;;4164645;28;20088;-88
2023/02/14 01:47:41;;;;;;;44.33;41.85;;;-1.70;99.90;;;;;;4164054;28;20048;-87
2023/02/14 01:50:24;;;;;;;45.92;43.22;;;-1.60;99.90;;;;;;4175799;28;20048;-88
2023/02/14 01:52:51;;;;;;;;;;;-1.60;99.90;;;;;;4168687;28;20427;-88
2023/02/14 01:55:18;;;;;;;42.60;39.70;;;-1.50;99.90;;;;;;4166145;28;19960;-87
2023/02/14 01:57:43;;;;;;;43.65;41.15;;;-1.50;99.90;;;;;;4164799;28;20083;-87
2023/02/14 02:02:44;;;;;;;43.35;40.38;;;-1.60;99.90;;;;;;4161876;28;20041;-87
2023/02/14 02:05:04;;;;;;;45.75;42.65;;;-1.50;99.90;;;;;;4170114;28;20048;-88
2023/02/14 02:07:26;;;;;;;52.05;48.47;;;-1.60;99.90;;;;;;4175586;28;20052;-88
2023/02/14 02:09:57;;;;;;;52.78;49.00;;;-1.80;99.90;;;;;;4167013;28;20121;-87
2023/02/14 02:12:17;;;;;;;52.08;48.65;;;-1.80;99.90;;;;;;4166383;28;20236;-88
2023/02/14 02:14:37;;;;;;;54.90;51.28;;;-1.90;99.90;;;;;;4166538;28;20104;-88
2023/02/14 02:17:14;;;;;;;54.17;50.17;;;-2.00;99.90;;;;;;4164036;28;20076;-88
2023/02/14 02:20:15;;;;;;;57.83;54.00;;;-2.10;99.90;;;;;;4160702;28;20076;-88
2023/02/14 02:22:58;;;;;;;53.38;50.13;;;-2.40;99.90;;;;;;4171744;28;20168;-87
2023/02/14 02:25:36;;;;;;;52.85;49.30;;;-2.50;99.90;;;;;;4172702;28;20107;-88
2023/02/14 02:27:56;;;;;;;57.95;54.47;;;-2.60;99.90;;;;;;4177977;28;20096;-87
2023/02/14 02:30:49;;;;;;;56.67;53.25;;;-2.70;99.90;;;;;;4180989;28;20056;-87
2023/02/14 02:33:25;;;;;;;53.80;50.38;;;-2.80;99.90;;;;;;4163440;28;20064;-87
2023/02/14 02:35:53;;;;;;;53.42;50.05;;;-2.80;99.90;;;;;;4167191;28;20080;-87
2023/02/14 02:38:47;;;;;;;56.72;52.78;;;-2.80;99.90;;;;;;4168232;28;20065;-87
2023/02/14 02:41:19;;;;;;;54.78;51.40;;;-2.70;99.90;;;;;;4162723;28;20112;-88
2023/02/14 02:44:03;;;;;;;54.58;51.22;;;-2.70;99.90;;;;;;4164905;28;20053;-88
2023/02/14 02:55:29;;;;;;;;;;;-2.60;99.90;;;;;;4164178;28;20236;-87
2023/02/14 02:57:52;;;;;;;56.75;52.53;;;-2.70;99.90;;;;;;4162701;28;19925;-87
2023/02/14 03:00:15;;;;;;;50.25;47.15;;;-2.60;99.90;;;;;;4158811;28;20049;-87
2023/02/14 03:05:19;;;;;;;51.88;48.63;;;-2.70;99.90;;;;;;4160705;28;20368;-87
2023/02/14 03:07:40;;;;;;;53.20;49.70;;;-2.60;99.90;;;;;;4165877;28;20056;-88
2023/02/14 03:10:16;;;;;;;53.15;49.85;;;-2.50;99.90;;;;;;4160553;28;20045;-88
2023/02/14 03:12:44;;;;;;;49.33;46.13;;;-2.60;99.90;;;;;;4163487;28;20041;-88
2023/02/14 03:15:18;;;;;;;51.15;47.90;;;-2.50;99.90;;;;;;4163776;28;20068;-88
2023/02/14 03:17:56;;;;;;;;;;;-2.40;99.90;;;;;;4159939;28;20053;-88
2023/02/14 03:20:34;;;;;;;55.53;51.70;;;-2.50;99.90;;;;;;4168725;28;19963;-87
2023/02/14 03:23:01;;;;;;;57.08;52.85;;;-2.60;99.90;;;;;;4162327;28;20072;-87
2023/02/14 03:25:59;;;;;;;58.00;53.80;;;-2.50;99.90;;;;;;4168057;28;20276;-88
2023/02/14 03:28:42;;;;;;;54.25;50.47;;;-2.50;99.90;;;;;;4165878;28;20040;-88
2023/02/14 03:31:27;;;;;;;53.03;49.50;;;-2.60;99.90;;;;;;4155276;28;20061;-87
2023/02/14 03:34:18;;;;;;;55.60;52.15;;;-2.70;99.90;;;;;;4164529;28;20307;-87
2023/02/14 03:37:07;;;;;;;57.53;53.67;;;-2.80;99.90;;;;;;4162969;28;20045;-88
2023/02/14 03:39:36;;;;;;;52.47;49.00;;;-2.80;99.90;;;;;;4160178;28;20366;-88
2023/02/14 03:42:03;;;;;;;52.47;49.08;;;-2.80;99.90;;;;;;4163849;28;20056;-87
2023/02/14 03:44:29;;;;;;;54.88;51.40;;;-2.90;99.90;;;;;;4163480;28;20041;-88
2023/02/14 03:46:53;;;;;;;51.85;48.47;;;-3.00;99.90;;;;;;4164246;28;20056;-88
2023/02/14 03:49:20;;;;;;;59.42;55.67;;;-3.10;99.90;;;;;;4164442;28;20060;-88
2023/02/14 03:51:43;;;;;;;57.63;53.78;;;-3.10;99.90;;;;;;4166005;28;20045;-87
2023/02/14 03:54:08;;;;;;;57.28;53.72;;;-3.20;99.90;;;;;;4162184;28;20048;-87
2023/02/14 03:56:34;;;;;;;58.72;54.40;;;-3.20;99.90;;;;;;4158879;28;20232;-87
2023/02/14 03:58:59;;;;;;;51.65;48.33;;;-3.30;99.90;;;;;;4161946;28;20076;-88
2023/02/14 04:01:33;;;;;;;57.42;53.97;;;-3.30;99.90;;;;;;4169844;28;20092;-87
2023/02/14 04:03:57;;;;;;;53.72;50.85;;;-3.40;99.90;;;;;;4177627;28;20051;-87
2023/02/14 04:06:19;;;;;;;57.10;53.60;;;-3.40;99.90;;;;;;4164912;28;20291;-88
2023/02/14 04:08:39;;;;;;;55.13;51.90;;;-3.50;99.90;;;;;;4172792;28;20075;-87
2023/02/14 04:11:01;;;;;;;54.70;51.38;;;-3.50;99.90;;;;;;4161356;28;20244;-88
2023/02/14 04:13:21;;;;;;;55.88;52.47;;;-3.40;99.90;;;;;;4163188;28;20072;-87
2023/02/14 04:15:42;;;;;;;52.65;49.90;;;-3.40;99.90;;;;;;4168029;28;20104;-87
2023/02/14 04:20:40;;;;;;;51.67;49.03;;;-3.30;99.90;;;;;;4162451;28;20717;-87
2023/02/14 04:23:00;;;;;;;51.38;48.45;;;-3.30;99.90;;;;;;4162407;28;20411;-87
2023/02/14 04:25:23;;;;;;;47.42;44.97;;;-3.20;99.90;;;;;;4162926;28;20068;-87
2023/02/14 04:27:42;;;;;;;51.55;48.63;;;-3.10;99.90;;;;;;4163470;28;20072;-87
2023/02/14 04:30:03;;;;;;;50.00;47.45;;;-3.10;99.90;;;;;;4165935;28;20084;-87
2023/02/14 04:32:23;;;;;;;51.63;48.78;;;-3.10;99.90;;;;;;4161723;28;20317;-87
2023/02/14 04:34:43;;;;;;;53.42;50.45;;;-3.10;99.90;;;;;;4161478;28;20236;-87
2023/02/14 04:37:03;;;;;;;57.63;54.03;;;-3.10;99.90;;;;;;4162447;28;20136;-87
2023/02/14 04:39:24;;;;;;;54.58;51.00;;;-3.10;99.90;;;;;;4165321;28;20040;-87
2023/02/14 04:41:44;;;;;;;55.97;52.55;;;-3.10;99.90;;;;;;4174369;28;20095;-87
2023/02/14 04:44:04;;;;;;;52.78;49.55;;;-3.20;99.90;;;;;;4169129;28;20084;-87
2023/02/14 04:46:24;;;;;;;48.10;45.13;;;-3.30;99.90;;;;;;4178104;28;20079;-87
2023/02/14 04:48:44;;;;;;;50.45;47.83;;;-3.00;99.90;;;;;;4172656;28;20225;-87
2023/02/14 04:51:05;;;;;;;52.25;49.15;;;-2.90;99.90;;;;;;4161726;28;20044;-88
2023/02/14 04:53:25;;;;;;;49.95;47.17;;;-2.90;99.90;;;;;;4171605;28;20044;-87
2023/02/14 04:55:48;;;;;;;50.80;47.92;;;-2.90;99.90;;;;;;4164868;28;20072;-87
2023/02/14 04:58:08;;;;;;;53.28;50.33;;;-2.90;99.90;;;;;;4163874;28;20095;-87
2023/02/14 05:00:28;;;;;;;50.10;47.40;;;-2.80;99.90;;;;;;4161491;28;20237;-87
2023/02/14 05:02:48;;;;;;;49.70;46.90;;;-2.70;99.90;;;;;;4159421;28;20407;-87
2023/02/14 05:05:08;;;;;;;56.58;53.00;;;-2.80;99.90;;;;;;4163785;28;20052;-88
2023/02/14 05:07:28;;;;;;;51.67;48.67;;;-2.80;99.90;;;;;;4165478;28;20053;-88
2023/02/14 05:09:48;;;;;;;51.58;48.70;;;-3.00;99.90;;;;;;4176729;28;20048;-87
2023/02/14 05:12:08;;;;;;;54.03;50.80;;;-3.20;99.90;;;;;;4166416;28;20044;-87
2023/02/14 05:14:28;;;;;;;53.58;49.92;;;-3.40;99.90;;;;;;4163900;28;20047;-87
2023/02/14 05:16:47;;;;;;;55.10;51.95;;;-3.40;99.90;;;;;;4179496;28;20053;-88
2023/02/14 05:19:07;;;;;;;51.47;48.30;;;-3.50;99.90;;;;;;4166989;28;20072;-88
2023/02/14 05:21:31;;;;;;;54.33;51.63;;;-3.70;99.90;;;;;;4160697;28;20085;-88
2023/02/14 05:23:51;;;;;;;54.53;50.83;;;-3.80;99.90;;;;;;4174123;28;20396;-87
2023/02/14 05:26:11;;;;;;;53.63;50.30;;;-3.90;99.90;;;;;;4170623;28;20251;-88
2023/02/14 05:28:31;;;;;;;57.88;53.95;;;-4.00;99.90;;;;;;4172051;28;20043;-88
2023/02/14 05:30:51;;;;;;;55.38;51.25;;;-4.00;99.90;;;;;;4164343;28;20065;-87
2023/02/14 05:33:11;;;;;;;53.95;50.55;;;-4.00;99.90;;;;;;4166345;28;20037;-87
2023/02/14 05:35:32;;;;;;;56.38;53.17;;;-4.10;99.90;;;;;;4173112;28;20091;-87
2023/02/14 05:37:52;;;;;;;54.15;51.28;;;-4.20;99.90;;;;;;4165649;28;20057;-88
2023/02/14 05:40:13;;;;;;;51.65;48.60;;;-4.10;99.90;;;;;;4166283;28;20053;-87
2023/02/14 05:42:33;;;;;;;56.17;53.05;;;-4.10;99.90;;;;;;4170713;28;20232;-87
2023/02/14 05:44:53;;;;;;;51.92;48.92;;;-3.90;99.90;;;;;;4160818;28;20049;-88
2023/02/14 05:47:13;;;;;;;51.97;49.17;;;-3.70;99.90;;;;;;4169033;28;20136;-87
2023/02/14 05:49:34;;;;;;;53.75;50.47;;;-3.80;99.90;;;;;;4167442;28;20395;-88
2023/02/14 05:51:54;;;;;;;55.55;51.60;;;-3.80;99.90;;;;;;4165449;28;20056;-87
2023/02/14 05:54:15;;;;;;;60.47;56.30;;;-3.80;99.90;;;;;;4165194;28;20113;-88
2023/02/14 05:56:34;;;;;;;63.13;58.85;;;-3.80;99.90;;;;;;4161400;28;20044;-87
2023/02/14 05:58:54;;;;;;;58.67;54.67;;;-3.80;99.90;;;;;;4160008;28;20053;-87
2023/02/14 06:01:14;;;;;;;63.97;59.58;;;-3.80;99.90;;;;;;4163762;28;20109;-87
2023/02/14 06:03:34;;;;;;;56.15;52.55;;;-3.80;99.90;;;;;;4164838;28;20110;-87
2023/02/14 06:05:54;;;;;;;57.28;53.47;;;-3.90;99.90;;;;;;4178296;28;20083;-87
2023/02/14 06:08:14;;;;;;;56.42;53.42;;;-3.90;99.90;;;;;;4178730;28;20080;-88
2023/02/14 06:10:35;;;;;;;49.03;46.20;;;-3.80;99.90;;;;;;4165928;28;20272;-87
2023/02/14 06:12:55;;;;;;;48.92;46.33;;;-3.80;99.90;;;;;;4162614;28;20088;-87
2023/02/14 06:15:15;;;;;;;55.65;52.50;;;-3.70;99.90;;;;;;4166068;28;20076;-87
2023/02/14 06:17:35;;;;;;;51.17;48.20;;;-3.70;99.90;;;;;;4175826;28;20052;-87
2023/02/14 06:19:55;;;;;;;51.55;48.63;;;-3.60;99.90;;;;;;4164638;28;20182;-85
2023/02/14 06:22:15;;;;;;;48.08;45.78;;;-3.50;99.90;;;;;;4171920;28;20244;-85
2023/02/14 06:24:35;;;;;;;51.58;49.05;;;-3.40;99.90;;;;;;4167027;28;20266;-85
2023/02/14 06:26:57;;;;;;;48.25;46.03;;;-3.40;99.90;;;;;;4162308;28;20068;-85
2023/02/14 06:29:17;;;;;;;50.15;47.53;;;-3.40;99.90;;;;;;4167502;28;20272;-85
2023/02/14 06:31:37;;;;;;;58.60;55.15;;;-3.60;99.90;;;;;;4172294;28;20455;-85
2023/02/14 06:33:58;;;;;;;57.28;53.45;;;-3.70;99.90;;;;;;4169469;28;20045;-85
2023/02/14 06:36:19;;;;;;;59.17;55.38;;;-3.70;99.90;;;;;;4164941;28;20405;-85
2023/02/14 06:38:40;;;;;;;60.17;56.20;;;-4.00;99.90;;;;;;4159434;28;20076;-85
2023/02/14 06:41:05;;;;;;;54.67;51.70;;;-4.00;99.90;;;;;;4161891;28;20064;-85
2023/02/14 06:43:25;;;;;;;57.22;54.03;;;-4.10;99.90;;;;;;4170102;28;20049;-87
2023/02/14 06:45:45;;;;;;;52.83;49.63;;;-4.00;99.90;;;;;;4166284;28;20080;-86
2023/02/14 06:48:05;;;;;;;52.92;50.17;;;-3.90;99.90;;;;;;4175161;28;20108;-87
2023/02/14 06:50:25;;;;;;;55.63;52.40;;;-3.90;99.90;;;;;;4174391;28;20041;-86
2023/02/14 06:52:45;;;;;;;55.75;52.75;;;-3.90;99.90;;;;;;4162255;28;20243;-87
2023/02/14 06:55:05;;;;;;;54.15;51.10;;;-3.90;99.90;;;;;;4164709;28;20057;-86
2023/02/14 06:57:25;;;;;;;53.97;51.03;;;-4.10;99.90;;;;;;4168266;28;20044;-87
2023/02/14 06:59:46;;;;;;;60.45;56.83;;;-4.10;99.90;;;;;;4165377;28;20257;-86
2023/02/14 07:02:05;;;;;;;55.20;51.83;;;-4.00;99.90;;;;;;4159357;28;20113;-86
2023/02/14 07:04:26;;;;;;;54.80;51.80;;;-3.90;99.90;;;;;;4168235;28;20056;-87
2023/02/14 07:06:45;;;;;;;52.22;49.05;;;-3.90;99.90;;;;;;4171135;28;20084;-87
2023/02/14 07:09:06;;;;;;;59.70;55.35;;;-3.80;99.90;;;;;;4166820;28;20045;-86
2023/02/14 07:11:27;;;;;;;63.75;58.92;;;-3.60;99.90;;;;;;4162663;28;20048;-87
2023/02/14 07:13:47;;;;;;;65.40;60.55;;;-3.60;99.90;;;;;;4164066;28;20053;-87
2023/02/14 07:16:09;;;;;;;63.72;58.88;;;-3.60;99.90;;;;;;4178027;28;20109;-87
2023/02/14 07:18:29;;;;;;;75.97;69.60;;;-3.60;99.90;;;;;;4161488;28;20049;-87
2023/02/14 07:20:50;;;;;;;61.65;57.65;;;-3.60;99.90;;;;;;4176438;28;20141;-86
2023/02/14 07:23:10;;;;;;;54.95;51.60;;;-3.60;99.90;;;;;;4177261;28;20096;-87
2023/02/14 07:25:30;;;;;;;53.97;50.78;;;-3.40;99.90;;;;;;4173878;28;20239;-87
2023/02/14 07:27:51;;;;;;;54.58;51.42;;;-3.20;99.90;;;;;;4163650;28;20053;-86
2023/02/14 07:30:12;;;;;;;55.70;52.30;;;-3.00;99.90;;;;;;4178302;28;20075;-87
2023/02/14 07:32:32;;;;;;;60.95;56.95;;;-3.00;99.90;;;;;;4170186;28;20052;-86
2023/02/14 07:34:52;;;;;;;59.08;55.13;;;-2.90;99.90;;;;;;4165839;28;20052;-86
2023/02/14 07:37:13;;;;;;;55.70;52.50;;;-2.90;99.90;;;;;;4170485;28;20088;-87
2023/02/14 07:39:33;;;;;;;57.38;53.47;;;-2.80;99.90;;;;;;4164691;28;20041;-86
2023/02/14 07:41:53;;;;;;;63.15;58.65;;;-2.80;99.90;;;;;;4166211;28;20112;-87
2023/02/14 07:44:13;;;;;;;60.55;56.20;;;-2.80;99.90;;;;;;4165578;28;20083;-87
2023/02/14 07:46:33;;;;;;;54.63;50.63;;;-2.70;99.90;;;;;;4170928;28;20111;-87
2023/02/14 07:48:53;;;;;;;66.32;60.15;;;-2.60;99.90;;;;;;4167121;28;20121;-87
2023/02/14 07:51:13;;;;;;;59.92;55.33;;;-2.60;99.90;;;;;;4168914;28;20105;-87
2023/02/14 07:53:33;;;;;;;49.92;47.20;;;-2.40;99.90;;;;;;4165540;28;20047;-87
2023/02/14 07:55:53;;;;;;;45.13;43.03;;;-2.20;99.90;;;;;;4165943;28;20354;-87
2023/02/14 07:58:13;;;;;;;53.38;49.60;;;-2.10;99.90;;;;;;4166729;28;20076;-87
2023/02/14 08:00:32;;;;;;;52.35;49.42;;;-2.00;99.90;;;;;;4162167;28;20431;-88
2023/02/14 08:02:54;;;;;;;47.75;45.22;;;-2.00;99.90;;;;;;4172303;28;20052;-87
2023/02/14 08:05:14;;;;;;;42.30;40.40;;;-1.80;99.90;;;;;;4172737;28;20766;-87
2023/02/14 08:07:34;;;;;;;52.20;48.72;;;-1.70;99.90;;;;;;4162142;28;20048;-88
2023/02/14 08:09:55;;;;;;;65.40;59.55;;;-1.60;99.90;;;;;;4174158;28;20040;-87
2023/02/14 08:14:53;;;;;;;47.85;44.53;;;-1.40;99.90;;;;;;4161611;28;20118;-88
2023/02/14 08:17:13;;;;;;;47.00;44.42;;;-1.30;99.90;;;;;;4174887;28;20235;-87
2023/02/14 08:19:33;;;;;;;52.08;48.78;;;-1.30;99.90;;;;;;4164360;28;20048;-88
2023/02/14 08:21:53;;;;;;;48.30;45.28;;;-1.10;99.90;;;;;;4158341;28;20248;-88
2023/02/14 08:24:13;;;;;;;43.42;40.75;;;-1.00;99.90;;;;;;4166797;28;20367;-88
2023/02/14 08:26:32;;;;;;;42.88;39.80;;;-0.90;99.90;;;;;;4167353;28;20053;-88
2023/02/14 08:28:53;;;;;;;27.48;25.88;;;-0.90;99.90;;;;;;4167082;28;20049;-88
2023/02/14 08:31:28;;;;;;;20.27;19.13;;;-0.80;99.90;;;;;;4163745;28;20100;-87
2023/02/14 08:33:56;;;;;;;18.95;17.95;;;-0.60;99.90;;;;;;4165178;28;20124;-89
2023/02/14 08:36:16;;;;;;;23.67;22.08;;;-0.40;99.90;;;;;;4164741;28;20236;-89
2023/02/14 08:38:36;;;;;;;24.17;22.35;;;-0.30;99.90;;;;;;4159775;28;20068;-89
2023/02/14 08:41:00;;;;;;;20.05;18.73;;;-0.20;99.90;;;;;;4177058;28;20044;-89
2023/02/14 08:43:21;;;;;;;21.50;20.38;;;-0.10;99.90;;;;;;4164373;28;20140;-90
2023/02/14 08:45:41;;;;;;;18.17;17.13;;;0.00;99.90;;;;;;4160849;28;20076;-90
2023/02/14 08:48:04;;;;;;;17.50;16.80;;;0.10;99.90;;;;;;4164241;28;20144;-90
2023/02/14 08:50:24;;;;;;;18.53;17.50;;;0.20;99.90;;;;;;4163501;28;20048;-89
2023/02/14 08:52:44;;;;;;;15.48;14.70;;;0.40;99.90;;;;;;4158439;28;20318;-89
2023/02/14 08:55:04;;;;;;;15.05;14.43;;;0.50;99.90;;;;;;4160189;28;20068;-89
2023/02/14 08:57:26;;;;;;;13.88;13.43;;;0.60;99.90;;;;;;4170798;28;20095;-89
2023/02/14 08:59:47;;;;;;;13.93;13.27;;;0.70;99.90;;;;;;4163906;28;20045;-89
2023/02/14 09:02:12;;;;;;;13.50;12.88;;;0.80;99.90;;;;;;4173865;28;20240;-89
2023/02/14 09:04:34;;;;;;;13.32;12.77;;;0.90;99.90;;;;;;4164867;28;20076;-89
2023/02/14 09:06:54;;;;;;;13.18;12.45;;;1.00;99.90;;;;;;4163426;28;20044;-89
2023/02/14 09:09:16;;;;;;;13.13;12.55;;;1.20;99.90;;;;;;4167374;28;20049;-88
2023/02/14 09:11:35;;;;;;;14.38;13.68;;;1.30;99.90;;;;;;4160574;28;20060;-88
2023/02/14 09:13:56;;;;;;;16.83;15.57;;;1.50;99.90;;;;;;4163463;28;20057;-88
2023/02/14 09:16:17;;;;;;;17.35;16.38;;;1.70;99.90;;;;;;4172801;28;20056;-88
2023/02/14 09:18:38;;;;;;;14.93;13.85;;;1.80;99.90;;;;;;4163624;28;20045;-88
2023/02/14 09:20:58;;;;;;;16.05;15.25;;;1.90;99.90;;;;;;4162699;28;20052;-88
2023/02/14 09:23:18;;;;;;;15.05;14.45;;;2.10;99.90;;;;;;4168309;28;20061;-88
2023/02/14 09:25:38;;;;;;;16.05;15.00;;;2.30;99.90;;;;;;4170500;28;20048;-88
2023/02/14 09:27:58;;;;;;;13.73;13.10;;;2.50;99.90;;;;;;4163880;28;20106;-88
2023/02/14 09:30:18;;;;;;;12.85;12.27;;;2.60;99.90;;;;;;4174601;28;20346;-88
2023/02/14 09:32:38;;;;;;;14.18;13.55;;;2.70;99.90;;;;;;4168673;28;20356;-87
2023/02/14 09:34:59;;;;;;;13.48;12.63;;;2.90;99.90;;;;;;4165520;28;20107;-87
2023/02/14 09:37:19;;;;;;;17.63;16.42;;;3.10;99.90;;;;;;4158860;28;20045;-88
2023/02/14 09:39:39;;;;;;;20.05;18.00;;;3.60;99.90;;;;;;4174434;28;20045;-87
2023/02/14 09:42:41;;;;;;;18.27;16.58;;;4.10;99.90;;;;;;4164480;28;20056;-87
2023/02/14 09:45:08;;;;;;;17.15;15.57;;;4.60;99.90;;;;;;4114145;28;20090;-88
2023/02/14 09:47:50;;;;;;;18.73;17.08;;;4.40;99.90;;;;;;4119820;28;20050;-88
2023/02/14 09:50:19;;;;;;;28.65;24.42;;;4.50;99.90;;;;;;4107566;28;20069;-88
2023/02/14 09:52:39;;;;;;;27.73;21.60;;;4.70;99.90;;;;;;4120528;28;20073;-87
2023/02/14 09:55:02;;;;;;;20.67;18.67;;;4.80;99.90;;;;;;4107631;28;20046;-88
2023/02/14 09:57:45;;;;;;;21.60;19.67;;;4.90;99.90;;;;;;4118783;28;20058;-88
2023/02/14 10:00:37;;;;;;;19.17;17.42;;;5.10;99.90;;;;;;4115004;28;20074;-88
2023/02/14 10:03:11;;;;;;;20.35;18.55;;;5.30;99.90;;;;;;4119349;28;20051;-88
2023/02/14 10:05:49;;;;;;;21.10;19.00;;;5.70;99.90;;;;;;4111492;28;20054;-88
2023/02/14 10:08:27;;;;;;;22.83;20.77;;;5.80;99.90;;;;;;4114718;28;20062;-89
2023/02/14 10:10:58;;;;;;;25.23;21.00;;;6.30;99.90;;;;;;4114813;28;20156;-89
2023/02/14 10:13:31;;;;;;;20.05;18.15;;;6.80;99.90;;;;;;4119402;28;20049;-90
2023/02/14 10:16:01;;;;;;;;;;;6.60;99.60;;;;;;4149083;28;20060;-89
2023/02/14 10:18:31;;;;;;;22.02;19.35;;;6.60;99.70;;;;;;4174009;28;19924;-89
2023/02/14 10:20:57;;;;;;;28.48;24.38;;;6.90;99.30;;;;;;4164883;28;20076;-90
2023/02/14 10:23:26;;;;;;;20.45;18.48;;;7.00;98.90;;;;;;4178841;28;20083;-90
2023/02/14 10:26:16;;;;;;;20.50;18.42;;;7.10;98.70;;;;;;4166623;28;20079;-90
2023/02/14 10:28:46;;;;;;;17.15;15.55;;;7.50;98.40;;;;;;4162011;28;20407;-90
2023/02/14 10:31:26;;;;;;;15.15;13.73;;;7.60;98.20;;;;;;4165328;28;20041;-90
2023/02/14 10:34:03;;;;;;;17.55;15.70;;;7.80;97.20;;;;;;4168381;28;20077;-90
2023/02/14 10:36:54;;;;;;;28.80;19.92;;;7.90;96.50;;;;;;4164097;28;20079;-90
2023/02/14 10:39:29;;;;;;;15.77;14.38;;;8.10;96.20;;;;;;4164828;28;20103;-90
2023/02/14 10:42:08;;;;;;;19.63;16.73;;;8.20;95.90;;;;;;4174096;28;20099;-90
2023/02/14 10:44:58;;;;;;;26.20;19.80;;;8.70;95.50;;;;;;4158954;28;20064;-90
2023/02/14 10:47:24;;;;;;;12.82;11.77;;;8.80;95.00;;;;;;4164417;28;20044;-90
2023/02/14 10:49:49;;;;;;;11.25;10.45;;;9.60;96.00;;;;;;4180023;28;20040;-90
2023/02/14 10:52:34;;;;;;;17.25;15.63;;;10.40;93.80;;;;;;4164748;28;20132;-90
2023/02/14 10:55:04;;;;;;;13.90;12.88;;;10.40;92.40;;;;;;4172214;28;20084;-90
2023/02/14 10:57:39;;;;;;;26.65;12.48;;;10.30;92.50;;;;;;4163480;28;20084;-91
2023/02/14 11:00:11;;;;;;;10.98;10.23;;;10.50;92.50;;;;;;4164777;28;20064;-90
2023/02/14 11:02:43;;;;;;;12.87;11.83;;;11.10;92.00;;;;;;4165269;28;20255;-90
2023/02/14 11:05:04;;;;;;;7.07;6.88;;;11.70;92.20;;;;;;4165166;28;20045;-91
2023/02/14 11:07:24;;;;;;;4.68;4.53;;;11.80;89.50;;;;;;4168031;28;20064;-90
2023/02/14 11:09:45;;;;;;;9.15;8.38;;;11.90;85.40;;;;;;4179036;28;20068;-90
2023/02/14 11:12:05;;;;;;;4.68;4.57;;;12.40;89.20;;;;;;4168440;28;20052;-90
2023/02/14 11:14:28;;;;;;;11.80;10.77;;;12.40;85.60;;;;;;4166114;28;20110;-90
2023/02/14 11:16:53;;;;;;;13.73;12.43;;;13.10;87.80;;;;;;4171635;28;20056;-90
2023/02/14 11:19:22;;;;;;;12.93;11.93;;;13.00;85.70;;;;;;4164649;28;20358;-90
2023/02/14 11:21:44;;;;;;;16.52;12.93;;;13.00;88.50;;;;;;4162271;28;20045;-89
2023/02/14 11:24:26;;;;;;;8.88;8.43;;;13.40;85.50;;;;;;4164394;28;20383;-90
2023/02/14 11:26:48;;;;;;;8.70;7.85;;;13.50;87.20;;;;;;4162212;28;20268;-90
2023/02/14 11:29:25;;;;;;;6.20;5.68;;;13.70;80.30;;;;;;4163494;28;20097;-90
2023/02/14 11:31:45;;;;;;;11.23;10.25;;;13.30;82.50;;;;;;4163151;28;20044;-90
2023/02/14 11:34:27;;;;;;;15.88;11.27;;;14.10;84.40;;;;;;4174955;28;20284;-90
2023/02/14 11:36:47;;;;;;;5.65;5.15;;;14.40;82.80;;;;;;4165545;28;20163;-90
2023/02/14 11:39:33;;;;;;;9.25;8.35;;;14.40;75.10;;;;;;4171730;28;20348;-90
2023/02/14 11:41:57;;;;;;;3.78;3.67;;;15.00;80.80;;;;;;4171750;28;20052;-90
2023/02/14 11:44:30;;;;;;;2.20;1.42;;;14.80;71.90;;;;;;4169860;28;20378;-90
2023/02/14 11:46:52;;;;;;;1.85;1.85;;;14.10;67.10;;;;;;4166477;28;20382;-90
2023/02/14 11:49:23;;;;;;;2.72;2.53;;;14.50;72.10;;;;;;4173411;28;20151;-91
2023/02/14 11:51:44;;;;;;;1.20;1.20;;;15.20;70.10;;;;;;4160224;28;20123;-90
2023/02/14 11:54:05;;;;;;;2.10;2.05;;;15.20;66.40;;;;;;4177336;28;20067;-90
2023/02/14 11:56:42;;;;;;;1.60;1.60;;;15.30;64.90;;;;;;4166610;28;20402;-91
2023/02/14 11:59:04;;;;;;;2.03;2.03;;;15.60;66.80;;;;;;4170090;28;20041;-90
2023/02/14 12:01:31;;;;;;;2.63;1.87;;;15.50;66.40;;;;;;4161788;28;20068;-90
2023/02/14 12:03:54;;;;;;;2.55;2.45;;;15.80;70.30;;;;;;4166829;28;20152;-90
2023/02/14 12:06:26;;;;;;;1.77;1.67;;;16.10;68.50;;;;;;4166086;28;20064;-90
2023/02/14 12:08:46;;;;;;;1.70;1.60;;;15.60;67.40;;;;;;4163666;28;20041;-90
2023/02/14 12:11:19;;;;;;;2.15;1.60;;;15.60;65.00;;;;;;4161006;28;20106;-90
2023/02/14 12:13:39;;;;;;;1.65;1.65;;;16.30;65.90;;;;;;4171935;28;20283;-90
2023/02/14 12:15:59;;;;;;;1.27;1.27;;;16.30;67.60;;;;;;4175763;28;20414;-90
2023/02/14 12:18:39;;;;;;;1.95;1.20;;;16.30;60.80;;;;;;4177025;28;20386;-90
2023/02/14 12:21:36;;;;;;;1.70;1.63;;;15.60;62.20;;;;;;4163449;28;20067;-90
2023/02/14 12:24:04;;;;;;;2.40;2.22;;;15.30;60.60;;;;;;4163257;28;20053;-91
2023/02/14 12:26:31;;;;;;;3.60;2.10;;;15.70;61.70;;;;;;4161767;28;20087;-91
2023/02/14 12:29:34;;;;;;;2.95;2.75;;;15.50;61.10;;;;;;4178770;28;20080;-90
2023/02/14 12:32:21;;;;;;;5.97;2.50;;;15.50;62.30;;;;;;4179703;28;20113;-91
2023/02/14 12:34:43;;;;;;;2.25;2.15;;;15.80;64.10;;;;;;4162147;28;20091;-90
2023/02/14 12:37:44;;;;;;;3.50;3.20;;;16.00;64.10;;;;;;4167609;28;20256;-91
2023/02/14 12:40:20;;;;;;;2.67;2.58;;;15.40;63.20;;;;;;4163591;28;20052;-91
2023/02/14 12:42:49;;;;;;;3.60;3.50;;;15.50;65.30;;;;;;4159285;28;20353;-91